Aeroporto :
LOGIN :

Iscrizione | Disclaimer

   EN    FR    IT 

 










Sommario :    VFR   VFR Marginale   IFR   IFR Intensivo   IFR Molto Intensivo
Visibilità : 
Base nubi : 
>= 8 km
>= 3000ft
5 / 8 km
1000 / 3000 ft
1500m / 5 km
500 / 1000 ft
800 / 1500m
200 / 500 ft
< 800m
< 200 ft
Simboli :   Temporali  Nebbia  Neve Forte  Precipitazioni Forti  Vento > 20 kt
SIGMETs :   Varie  Temporali  Ghiacco  Turbolenza  Onda orograficha  Ceneri Vulcaniche






- Altitudine del aeroporto : 219 ft
- Codice IATA : DNR


LFRD - Dinard

ULTIMO METAR :
  • 290400Z AUTO 22010KT CAVOK 11/09 Q1017 NOSIG

METARs OBSOLETI :
  • 290330Z AUTO 23010KT CAVOK 11/09 Q1017 NOSIG
  • 290300Z AUTO 22011KT CAVOK 11/09 Q1017 NOSIG
  • 290230Z AUTO 23011KT CAVOK 11/09 Q1017 NOSIG
  • 290200Z AUTO 23011KT CAVOK 11/09 Q1016 NOSIG
  • 290130Z AUTO 23010KT CAVOK 11/09 Q1016 NOSIG

TAF TAF LFRD
Valido dal 29 a 00 ore il 30 a 00 ore UTC


282300Z 2900/2924 24010KT 9999 SCT030 OVC100
TEMPO 2909/2911 BKN009
TEMPO 2911/2924 22015G25KT
PROB40
TEMPO 2914/2924 4500 RA
ATIS : +33 2 99 16 81 50



MetMap, La meteo Aeronautica in un colpo d'occhio ! - Copyright ORBIFLY Dicembre 2007 - Disclaimer

ORBIFLY MET'MAP TEAM :

Programmazione e sviluppo : Alexandra Zaïnal
Concezione : Baudouin d'Aumeries
Aiuto per la programmazione : Marc-Olivier Méhu
Supporto tecnico e logistico : Manuel Goepfert
Aiuto per la traduzione : Arnaldo La Scala

Contatto : metmap@orbifly.com




FONTI E CREDITI :

   NOAA